Wetterdaten: Woche 02.05.22 - 08.05.22 (KW18)
Datum Zeit Temp. Aussen Temp. o. S. Temp +5cm Feuchte Auss Luftdruck Regen Sonnenschein Regendauer Solar Windben Empfang
02.05.2022 00:00 10,6 C 9,3 C 6,1 C 79 % 1021,6 hPa 0,0 l/m 0,00 h 0,00 h 0 W/m 0,0 km/h (0 Bft) 95,86 %
02.05.2022 01:00 9,9 C 8,6 C 5,4 C 82 % 1021,3 hPa 0,0 l/m 0,00 h 0,00 h 0 W/m 0,2 km/h (0 Bft) 97,86 %
02.05.2022 02:00 9,1 C 7,7 C 4,8 C 84 % 1020,9 hPa 0,0 l/m 0,00 h 0,00 h 0 W/m 0,2 km/h (0 Bft) 95,68 %
02.05.2022 03:00 8,4 C 7,3 C 4,2 C 86 % 1020,5 hPa 0,0 l/m 0,00 h 0,00 h 0 W/m 0,1 km/h (0 Bft) 98,51 %
02.05.2022 04:00 7,9 C 7,4 C 4,2 C 87 % 1020,2 hPa 0,0 l/m 0,00 h 0,00 h 0 W/m 2,6 km/h (1 Bft) 96,16 %
02.05.2022 05:00 8,0 C 7,2 C 4,2 C 86 % 1020,0 hPa 0,0 l/m 0,00 h 0,00 h 0 W/m 2,0 km/h (1 Bft) 97,87 %
02.05.2022 06:00 7,8 C 7,1 C 3,9 C 87 % 1019,9 hPa 0,0 l/m 0,00 h 0,00 h 17 W/m 3,5 km/h (1 Bft) 96,13 %
02.05.2022 07:00 8,0 C 7,9 C 4,6 C 87 % 1020,0 hPa 0,0 l/m 0,00 h 0,00 h 68 W/m 4,1 km/h (1 Bft) 98,51 %
02.05.2022 08:00 9,3 C 9,8 C 6,0 C 84 % 1020,2 hPa 0,0 l/m 0,00 h 0,00 h 131 W/m 7,7 km/h (2 Bft) 96,65 %
02.05.2022 09:00 11,3 C 13,4 C 8,4 C 78 % 1020,2 hPa 0,0 l/m 0,73 h 0,00 h 308 W/m 7,1 km/h (2 Bft) 96,35 %
02.05.2022 10:00 14,6 C 18,6 C 11,5 C 68 % 1020,0 hPa 0,0 l/m 0,87 h 0,00 h 488 W/m 10,1 km/h (2 Bft) 95,80 %
02.05.2022 11:00 16,3 C 18,6 C 13,1 C 63 % 1019,8 hPa 0,0 l/m 1,00 h 0,00 h 733 W/m 12,9 km/h (3 Bft) 99,15 %
02.05.2022 12:00 18,0 C 21,4 C 19,4 C 57 % 1019,4 hPa 0,0 l/m 1,00 h 0,00 h 818 W/m 13,7 km/h (3 Bft) 98,79 %
02.05.2022 13:00 19,3 C 22,9 C 16,6 C 54 % 1019,0 hPa 0,0 l/m 1,00 h 0,00 h 860 W/m 12,9 km/h (3 Bft) 97,30 %
02.05.2022 14:00 20,0 C 23,3 C 15,7 C 52 % 1018,7 hPa 0,0 l/m 0,77 h 0,00 h 711 W/m 11,6 km/h (2 Bft) 98,01 %
02.05.2022 15:00 20,0 C 23,1 C 15,6 C 52 % 1018,2 hPa 0,0 l/m 0,77 h 0,00 h 658 W/m 10,2 km/h (2 Bft) 96,66 %
02.05.2022 16:00 21,0 C 27,1 C 17,0 C 49 % 1017,7 hPa 0,0 l/m 1,00 h 0,00 h 718 W/m 12,5 km/h (3 Bft) 98,22 %
02.05.2022 17:00 20,9 C 26,0 C 16,8 C 49 % 1017,2 hPa 0,0 l/m 1,00 h 0,00 h 496 W/m 13,1 km/h (3 Bft) 98,29 %
02.05.2022 18:00 20,3 C 23,9 C 16,1 C 50 % 1017,0 hPa 0,0 l/m 1,00 h 0,00 h 319 W/m 14,7 km/h (3 Bft) 95,61 %
02.05.2022 19:00 18,7 C 18,0 C 14,0 C 53 % 1017,0 hPa 0,0 l/m 0,17 h 0,00 h 85 W/m 15,7 km/h (3 Bft) 98,38 %
02.05.2022 20:00 17,3 C 16,3 C 12,5 C 57 % 1017,3 hPa 0,0 l/m 0,00 h 0,00 h 24 W/m 10,3 km/h (2 Bft) 98,36 %
02.05.2022 21:00 16,1 C 15,1 C 11,3 C 59 % 1017,8 hPa 0,0 l/m 0,00 h 0,00 h 0 W/m 11,1 km/h (2 Bft) 96,16 %
02.05.2022 22:00 15,1 C 14,1 C 10,5 C 61 % 1018,1 hPa 0,0 l/m 0,00 h 0,00 h 0 W/m 10,8 km/h (2 Bft) 98,93 %
02.05.2022 23:00 13,8 C 12,8 C 9,2 C 65 % 1018,3 hPa 0,0 l/m 0,00 h 0,00 h 0 W/m 12,0 km/h (2 Bft) 95,98 %
03.05.2022 00:00 12,5 C 11,7 C 8,1 C 70 % 1018,5 hPa 0,0 l/m 0,00 h 0,00 h 0 W/m 11,0 km/h (2 Bft) 92,84 %
03.05.2022 01:00 11,7 C 10,8 C 7,4 C 72 % 1018,6 hPa 0,0 l/m 0,00 h 0,00 h 0 W/m 8,1 km/h (2 Bft) 98,22 %
03.05.2022 02:00 10,8 C 9,8 C 6,5 C 75 % 1018,3 hPa 0,0 l/m 0,00 h 0,00 h 0 W/m 5,5 km/h (1 Bft) 98,00 %
03.05.2022 03:00 10,0 C 8,9 C 5,7 C 78 % 1018,3 hPa 0,0 l/m 0,00 h 0,00 h 0 W/m 5,3 km/h (1 Bft) 97,37 %
03.05.2022 04:00 9,1 C 8,1 C 5,0 C 79 % 1018,2 hPa 0,0 l/m 0,00 h 0,00 h 0 W/m 6,5 km/h (2 Bft) 95,79 %
03.05.2022 05:00 8,4 C 7,4 C 4,2 C 80 % 1018,1 hPa 0,0 l/m 0,00 h 0,00 h 0 W/m 5,9 km/h (2 Bft) 98,03 %
03.05.2022 06:00 7,8 C 7,2 C 3,9 C 80 % 1018,3 hPa 0,0 l/m 0,00 h 0,00 h 16 W/m 5,9 km/h (2 Bft) 98,10 %
03.05.2022 07:00 7,9 C 7,8 C 4,4 C 80 % 1018,6 hPa 0,0 l/m 0,00 h 0,00 h 54 W/m 5,8 km/h (2 Bft) 97,01 %
03.05.2022 08:00 9,6 C 10,5 C 6,1 C 73 % 1018,9 hPa 0,0 l/m 0,67 h 0,00 h 229 W/m 9,6 km/h (2 Bft) 97,39 %
03.05.2022 09:00 12,7 C 17,1 C 9,9 C 61 % 1019,2 hPa 0,0 l/m 0,90 h 0,00 h 410 W/m 11,7 km/h (2 Bft) 96,00 %
03.05.2022 10:00 14,8 C 18,5 C 11,1 C 53 % 1019,3 hPa 0,0 l/m 0,93 h 0,00 h 557 W/m 14,1 km/h (3 Bft) 97,44 %
03.05.2022 11:00 16,3 C 18,6 C 13,0 C 51 % 1019,4 hPa 0,0 l/m 1,00 h 0,00 h 759 W/m 13,2 km/h (3 Bft) 98,58 %
03.05.2022 12:00 17,8 C 20,9 C 19,6 C 49 % 1019,3 hPa 0,0 l/m 1,00 h 0,00 h 850 W/m 14,6 km/h (3 Bft) 98,79 %
03.05.2022 13:00 18,6 C 22,0 C 16,3 C 47 % 1018,9 hPa 0,0 l/m 1,00 h 0,00 h 885 W/m 12,3 km/h (3 Bft) 97,51 %
03.05.2022 14:00 19,3 C 23,1 C 14,8 C 46 % 1018,4 hPa 0,0 l/m 1,00 h 0,00 h 865 W/m 13,8 km/h (3 Bft) 98,22 %
03.05.2022 15:00 19,7 C 23,7 C 14,8 C 47 % 1017,9 hPa 0,0 l/m 1,00 h 0,00 h 790 W/m 14,3 km/h (3 Bft) 95,80 %
03.05.2022 16:00 20,0 C 26,1 C 15,7 C 47 % 1017,5 hPa 0,0 l/m 1,00 h 0,00 h 679 W/m 14,5 km/h (3 Bft) 99,65 %
03.05.2022 17:00 20,2 C 25,9 C 16,6 C 49 % 1017,3 hPa 0,0 l/m 1,00 h 0,00 h 547 W/m 14,2 km/h (3 Bft) 96,87 %
03.05.2022 18:00 19,1 C 22,5 C 14,8 C 51 % 1017,1 hPa 0,0 l/m 0,73 h 0,00 h 257 W/m 14,0 km/h (3 Bft) 96,60 %
03.05.2022 19:00 17,3 C 16,8 C 12,8 C 59 % 1017,2 hPa 0,0 l/m 0,03 h 0,00 h 66 W/m 15,9 km/h (3 Bft) 98,15 %
03.05.2022 20:00 15,6 C 14,8 C 11,1 C 70 % 1017,5 hPa 0,0 l/m 0,00 h 0,00 h 22 W/m 15,3 km/h (3 Bft) 97,15 %
03.05.2022 21:00 14,3 C 13,4 C 9,7 C 76 % 1018,1 hPa 0,0 l/m 0,00 h 0,00 h 0 W/m 12,8 km/h (3 Bft) 97,58 %
03.05.2022 22:00 13,0 C 12,0 C 8,4 C 80 % 1018,6 hPa 0,0 l/m 0,00 h 0,00 h 0 W/m 9,9 km/h (2 Bft) 99,00 %
03.05.2022 23:00 11,9 C 11,0 C 7,5 C 82 % 1018,8 hPa 0,0 l/m 0,00 h 0,00 h 0 W/m 8,4 km/h (2 Bft) 97,65 %
04.05.2022 00:00 11,0 C 10,2 C 6,9 C 83 % 1018,9 hPa 0,0 l/m 0,00 h 0,00 h 0 W/m 9,3 km/h (2 Bft) 97,04 %
04.05.2022 01:00 10,2 C 9,4 C 6,1 C 83 % 1019,0 hPa 0,0 l/m 0,00 h 0,00 h 0 W/m 6,7 km/h (2 Bft) 97,65 %
04.05.2022 02:00 9,5 C 8,5 C 5,4 C 83 % 1018,8 hPa 0,0 l/m 0,00 h 0,00 h 0 W/m 6,1 km/h (2 Bft) 98,70 %
04.05.2022 03:00 8,8 C 7,8 C 4,8 C 85 % 1018,8 hPa 0,0 l/m 0,00 h 0,00 h 0 W/m 4,5 km/h (1 Bft) 97,08 %
04.05.2022 04:00 8,3 C 7,4 C 4,4 C 86 % 1018,7 hPa 0,0 l/m 0,00 h 0,00 h 0 W/m 7,3 km/h (2 Bft) 95,32 %
04.05.2022 05:00 7,9 C 6,9 C 3,9 C 86 % 1018,6 hPa 0,0 l/m 0,00 h 0,00 h 0 W/m 5,8 km/h (2 Bft) 96,95 %
04.05.2022 06:00 7,3 C 6,7 C 3,4 C 87 % 1018,8 hPa 0,0 l/m 0,00 h 0,00 h 19 W/m 7,8 km/h (2 Bft) 99,28 %
04.05.2022 07:00 7,8 C 7,8 C 4,4 C 87 % 1018,8 hPa 0,0 l/m 0,00 h 0,00 h 76 W/m 7,4 km/h (2 Bft) 94,87 %
04.05.2022 08:00 9,2 C 10,2 C 5,9 C 83 % 1018,9 hPa 0,0 l/m 0,53 h 0,00 h 210 W/m 9,8 km/h (2 Bft) 97,72 %
04.05.2022 09:00 11,8 C 16,5 C 9,6 C 76 % 1019,1 hPa 0,0 l/m 0,90 h 0,00 h 402 W/m 10,2 km/h (2 Bft) 98,22 %
04.05.2022 10:00 13,3 C 17,4 C 10,3 C 72 % 1019,2 hPa 0,0 l/m 1,00 h 0,00 h 549 W/m 11,1 km/h (2 Bft) 97,57 %
04.05.2022 11:00 14,6 C 16,8 C 11,9 C 69 % 1019,1 hPa 0,0 l/m 1,00 h 0,00 h 745 W/m 13,3 km/h (3 Bft) 98,00 %
04.05.2022 12:00 16,1 C 19,4 C 18,7 C 64 % 1018,9 hPa 0,0 l/m 1,00 h 0,00 h 861 W/m 13,5 km/h (3 Bft) 99,17 %
04.05.2022 13:00 17,3 C 20,4 C 16,0 C 56 % 1018,6 hPa 0,0 l/m 1,00 h 0,00 h 899 W/m 11,5 km/h (2 Bft) 97,22 %
04.05.2022 14:00 18,4 C 21,9 C 14,4 C 52 % 1018,3 hPa 0,0 l/m 1,00 h 0,00 h 880 W/m 12,3 km/h (3 Bft) 97,86 %
04.05.2022 15:00 19,1 C 22,6 C 14,5 C 50 % 1017,9 hPa 0,0 l/m 1,00 h 0,00 h 809 W/m 12,7 km/h (3 Bft) 96,01 %
04.05.2022 16:00 19,3 C 24,7 C 15,0 C 49 % 1017,6 hPa 0,0 l/m 1,00 h 0,00 h 686 W/m 13,1 km/h (3 Bft) 99,72 %
04.05.2022 17:00 20,2 C 26,0 C 16,2 C 46 % 1017,4 hPa 0,0 l/m 1,00 h 0,00 h 530 W/m 12,9 km/h (3 Bft) 98,08 %
04.05.2022 18:00 19,8 C 24,5 C 15,5 C 46 % 1017,3 hPa 0,0 l/m 1,00 h 0,00 h 349 W/m 14,6 km/h (3 Bft) 95,94 %
04.05.2022 19:00 18,0 C 17,2 C 13,2 C 50 % 1017,5 hPa 0,0 l/m 0,20 h 0,00 h 84 W/m 12,0 km/h (2 Bft) 99,22 %
04.05.2022 20:00 16,7 C 15,7 C 12,0 C 54 % 1017,8 hPa 0,0 l/m 0,00 h 0,00 h 27 W/m 7,3 km/h (2 Bft) 97,01 %
04.05.2022 21:00 15,8 C 14,6 C 11,1 C 59 % 1018,3 hPa 0,0 l/m 0,00 h 0,00 h 0 W/m 2,7 km/h (1 Bft) 97,29 %
04.05.2022 22:00 15,3 C 14,1 C 10,6 C 62 % 1018,7 hPa 0,0 l/m 0,00 h 0,00 h 0 W/m 2,1 km/h (1 Bft) 99,00 %
04.05.2022 23:00 14,1 C 12,2 C 8,6 C 69 % 1019,0 hPa 0,0 l/m 0,00 h 0,00 h 0 W/m 1,0 km/h (0 Bft) 97,01 %
05.05.2022 00:00 12,4 C 11,1 C 7,7 C 73 % 1019,5 hPa 0,0 l/m 0,00 h 0,00 h 0 W/m 1,1 km/h (0 Bft) 93,97 %
05.05.2022 01:00 11,9 C 11,1 C 7,7 C 76 % 1019,7 hPa 0,0 l/m 0,00 h 0,00 h 0 W/m 1,1 km/h (0 Bft) 97,08 %
05.05.2022 02:00 11,8 C 11,2 C 7,8 C 77 % 1019,6 hPa 0,0 l/m 0,00 h 0,00 h 0 W/m 1,2 km/h (1 Bft) 98,58 %
05.05.2022 03:00 12,0 C 11,5 C 8,0 C 76 % 1019,7 hPa 0,0 l/m 0,00 h 0,00 h 0 W/m 0,9 km/h (0 Bft) 97,00 %
05.05.2022 04:00 11,7 C 10,4 C 7,2 C 78 % 1019,9 hPa 0,0 l/m 0,00 h 0,00 h 0 W/m 0,7 km/h (0 Bft) 96,85 %
05.05.2022 05:00 10,6 C 9,2 C 6,0 C 81 % 1020,0 hPa 0,0 l/m 0,00 h 0,00 h 0 W/m 1,2 km/h (1 Bft) 97,72 %
05.05.2022 06:00 9,8 C 8,6 C 5,5 C 84 % 1020,4 hPa 0,0 l/m 0,00 h 0,00 h 20 W/m 0,7 km/h (0 Bft) 98,70 %
05.05.2022 07:00 10,1 C 10,3 C 6,8 C 85 % 1020,9 hPa 0,0 l/m 0,00 h 0,00 h 84 W/m 1,6 km/h (1 Bft) 95,73 %
05.05.2022 08:00 11,7 C 12,5 C 8,5 C 81 % 1021,4 hPa 0,0 l/m 0,53 h 0,00 h 193 W/m 3,9 km/h (1 Bft) 98,36 %
05.05.2022 09:00 13,3 C 14,3 C 10,0 C 73 % 1021,7 hPa 0,0 l/m 0,00 h 0,00 h 212 W/m 3,2 km/h (1 Bft) 99,05 %
05.05.2022 10:00 14,6 C 16,3 C 11,7 C 69 % 1022,1 hPa 0,0 l/m 0,63 h 0,00 h 373 W/m 4,8 km/h (1 Bft) 96,72 %
05.05.2022 11:00 16,2 C 17,7 C 13,4 C 64 % 1022,4 hPa 0,0 l/m 0,80 h 0,00 h 524 W/m 7,5 km/h (2 Bft) 97,36 %
05.05.2022 12:00 17,9 C 20,4 C 19,0 C 57 % 1022,5 hPa 0,0 l/m 0,93 h 0,00 h 679 W/m 8,8 km/h (2 Bft) 96,01 %
05.05.2022 13:00 18,9 C 21,3 C 17,9 C 55 % 1022,4 hPa 0,0 l/m 0,73 h 0,00 h 789 W/m 9,2 km/h (2 Bft) 99,21 %
05.05.2022 14:00 20,1 C 23,6 C 16,4 C 52 % 1022,3 hPa 0,0 l/m 0,97 h 0,00 h 893 W/m 10,5 km/h (2 Bft) 98,42 %
05.05.2022 15:00 19,8 C 20,7 C 15,5 C 53 % 1022,3 hPa 0,0 l/m 0,17 h 0,00 h 260 W/m 6,7 km/h (2 Bft) 96,82 %
05.05.2022 16:00 20,4 C 21,4 C 15,9 C 51 % 1022,2 hPa 0,0 l/m 0,23 h 0,00 h 368 W/m 8,3 km/h (2 Bft) 97,61 %
05.05.2022 17:00 19,9 C 19,7 C 15,3 C 53 % 1022,2 hPa 0,0 l/m 0,00 h 0,00 h 184 W/m 7,4 km/h (2 Bft) 98,53 %
05.05.2022 18:00 19,3 C 19,2 C 15,0 C 54 % 1022,4 hPa 0,0 l/m 0,30 h 0,00 h 165 W/m 11,9 km/h (2 Bft) 96,57 %
05.05.2022 19:00 18,7 C 18,2 C 14,0 C 55 % 1022,5 hPa 0,0 l/m 0,07 h 0,00 h 82 W/m 6,9 km/h (2 Bft) 98,15 %
05.05.2022 20:00 17,7 C 16,3 C 12,5 C 59 % 1022,9 hPa 0,0 l/m 0,00 h 0,00 h 24 W/m 5,0 km/h (1 Bft) 96,73 %
05.05.2022 21:00 16,2 C 14,2 C 10,5 C 64 % 1023,5 hPa 0,0 l/m 0,00 h 0,00 h 1 W/m 1,5 km/h (1 Bft) 97,85 %
05.05.2022 22:00 14,4 C 12,3 C 8,8 C 72 % 1024,1 hPa 0,0 l/m 0,00 h 0,00 h 0 W/m 0,3 km/h (0 Bft) 98,79 %
05.05.2022 23:00 12,8 C 11,0 C 7,7 C 79 % 1024,4 hPa 0,0 l/m 0,00 h 0,00 h 0 W/m 0,3 km/h (0 Bft) 96,80 %
06.05.2022 00:00 11,6 C 10,1 C 6,9 C 83 % 1024,6 hPa 0,0 l/m 0,00 h 0,00 h 0 W/m 0,0 km/h (0 Bft) 94,64 %
06.05.2022 01:00 10,7 C 9,5 C 6,4 C 86 % 1024,7 hPa 0,0 l/m 0,00 h 0,00 h 0 W/m 0,0 km/h (0 Bft) 95,53 %
06.05.2022 02:00 10,0 C 8,9 C 5,8 C 88 % 1024,8 hPa 0,0 l/m 0,00 h 0,00 h 0 W/m 0,4 km/h (0 Bft) 98,66 %
06.05.2022 03:00 9,5 C 8,5 C 5,5 C 89 % 1024,9 hPa 0,0 l/m 0,00 h 0,00 h 0 W/m 1,5 km/h (1 Bft) 98,51 %
06.05.2022 04:00 9,0 C 7,8 C 5,0 C 90 % 1025,0 hPa 0,0 l/m 0,00 h 0,00 h 0 W/m 0,0 km/h (0 Bft) 96,31 %
06.05.2022 05:00 8,5 C 7,2 C 4,4 C 91 % 1024,9 hPa 0,0 l/m 0,00 h 0,00 h 0 W/m 0,0 km/h (0 Bft) 96,08 %
06.05.2022 06:00 8,0 C 7,1 C 4,4 C 92 % 1025,2 hPa 0,0 l/m 0,00 h 0,00 h 17 W/m 0,1 km/h (0 Bft) 99,36 %
06.05.2022 07:00 8,7 C 8,9 C 5,7 C 94 % 1025,6 hPa 0,0 l/m 0,00 h 0,00 h 52 W/m 1,1 km/h (0 Bft) 97,30 %
06.05.2022 08:00 10,8 C 12,4 C 7,7 C 93 % 1025,8 hPa 0,0 l/m 0,83 h 0,00 h 267 W/m 4,3 km/h (1 Bft) 98,15 %
06.05.2022 09:00 14,2 C 19,2 C 12,7 C 83 % 1026,1 hPa 0,0 l/m 0,97 h 0,00 h 368 W/m 5,0 km/h (1 Bft) 98,36 %
06.05.2022 10:00 16,5 C 20,2 C 13,5 C 75 % 1026,0 hPa 0,0 l/m 0,90 h 0,00 h 552 W/m 5,2 km/h (1 Bft) 98,61 %
06.05.2022 11:00 18,2 C 20,3 C 14,9 C 68 % 1026,0 hPa 0,0 l/m 1,00 h 0,00 h 750 W/m 8,3 km/h (2 Bft) 95,94 %
06.05.2022 12:00 20,0 C 23,0 C 22,6 C 62 % 1025,7 hPa 0,0 l/m 1,00 h 0,00 h 899 W/m 9,6 km/h (2 Bft) 97,55 %
06.05.2022 13:00 20,6 C 22,9 C 19,5 C 61 % 1025,4 hPa 0,0 l/m 0,90 h 0,00 h 821 W/m 10,4 km/h (2 Bft) 96,53 %
06.05.2022 14:00 21,5 C 24,5 C 17,7 C 55 % 1025,0 hPa 0,0 l/m 0,93 h 0,00 h 837 W/m 10,2 km/h (2 Bft) 99,71 %
06.05.2022 15:00 21,8 C 24,9 C 17,6 C 55 % 1024,7 hPa 0,0 l/m 0,87 h 0,00 h 697 W/m 12,5 km/h (3 Bft) 96,72 %
06.05.2022 16:00 21,9 C 26,2 C 17,6 C 52 % 1024,4 hPa 0,0 l/m 0,87 h 0,00 h 588 W/m 11,1 km/h (2 Bft) 97,23 %
06.05.2022 17:00 21,9 C 26,1 C 17,8 C 52 % 1024,2 hPa 0,0 l/m 0,93 h 0,00 h 455 W/m 9,1 km/h (2 Bft) 98,77 %
06.05.2022 18:00 22,1 C 25,9 C 17,8 C 51 % 1023,8 hPa 0,0 l/m 1,00 h 0,00 h 359 W/m 7,5 km/h (2 Bft) 96,82 %
06.05.2022 19:00 21,6 C 20,9 C 16,5 C 52 % 1023,6 hPa 0,0 l/m 0,27 h 0,00 h 101 W/m 5,2 km/h (1 Bft) 97,17 %
06.05.2022 20:00 20,3 C 18,5 C 14,3 C 59 % 1023,7 hPa 0,0 l/m 0,00 h 0,00 h 20 W/m 1,0 km/h (0 Bft) 98,44 %
06.05.2022 21:00 18,0 C 15,8 C 11,9 C 68 % 1023,9 hPa 0,0 l/m 0,00 h 0,00 h 0 W/m 0,1 km/h (0 Bft) 95,67 %
06.05.2022 22:00 16,0 C 14,2 C 10,5 C 76 % 1023,9 hPa 0,0 l/m 0,00 h 0,00 h 0 W/m 0,0 km/h (0 Bft) 99,07 %
06.05.2022 23:00 14,6 C 13,1 C 9,7 C 79 % 1023,7 hPa 0,0 l/m 0,00 h 0,00 h 0 W/m 0,2 km/h (0 Bft) 97,35 %
07.05.2022 00:00 13,8 C 12,3 C 9,0 C 83 % 1023,6 hPa 0,0 l/m 0,00 h 0,00 h 0 W/m 0,0 km/h (0 Bft) 97,45 %
07.05.2022 01:00 12,9 C 11,6 C 8,4 C 85 % 1023,6 hPa 0,0 l/m 0,00 h 0,00 h 0 W/m 0,2 km/h (0 Bft) 96,38 %
07.05.2022 02:00 12,1 C 10,8 C 7,8 C 87 % 1023,3 hPa 0,0 l/m 0,00 h 0,00 h 0 W/m 0,2 km/h (0 Bft) 98,90 %
07.05.2022 03:00 11,5 C 10,6 C 7,4 C 89 % 1023,0 hPa 0,0 l/m 0,00 h 0,00 h 0 W/m 0,0 km/h (0 Bft) 98,51 %
07.05.2022 04:00 11,2 C 10,3 C 7,3 C 90 % 1022,9 hPa 0,0 l/m 0,00 h 0,00 h 0 W/m 0,6 km/h (0 Bft) 96,94 %
07.05.2022 05:00 11,0 C 10,3 C 7,0 C 91 % 1022,9 hPa 0,0 l/m 0,00 h 0,00 h 0 W/m 0,7 km/h (0 Bft) 96,06 %
07.05.2022 06:00 10,6 C 10,1 C 7,2 C 90 % 1023,0 hPa 0,0 l/m 0,00 h 0,00 h 20 W/m 1,7 km/h (1 Bft) 99,34 %
07.05.2022 07:00 11,1 C 11,1 C 7,9 C 89 % 1023,3 hPa 0,0 l/m 0,10 h 0,00 h 93 W/m 5,7 km/h (1 Bft) 96,47 %
07.05.2022 08:00 13,0 C 14,4 C 10,1 C 85 % 1023,5 hPa 0,0 l/m 0,90 h 0,00 h 239 W/m 4,4 km/h (1 Bft) 97,95 %
07.05.2022 09:00 16,0 C 18,1 C 12,9 C 75 % 1023,6 hPa 0,0 l/m 0,80 h 0,00 h 300 W/m 5,7 km/h (1 Bft) 98,43 %
07.05.2022 10:00 17,9 C 20,7 C 15,1 C 70 % 1023,7 hPa 0,0 l/m 1,00 h 0,00 h 561 W/m 7,1 km/h (2 Bft) 97,54 %
07.05.2022 11:00 20,1 C 21,7 C 17,1 C 63 % 1023,6 hPa 0,0 l/m 0,73 h 0,00 h 623 W/m 8,7 km/h (2 Bft) 96,16 %
07.05.2022 12:00 21,5 C 23,9 C 23,6 C 57 % 1023,4 hPa 0,0 l/m 1,00 h 0,00 h 810 W/m 10,0 km/h (2 Bft) 97,74 %
07.05.2022 13:00 23,2 C 25,5 C 21,2 C 55 % 1023,1 hPa 0,0 l/m 0,90 h 0,00 h 663 W/m 9,6 km/h (2 Bft) 97,68 %
07.05.2022 14:00 24,2 C 26,8 C 19,8 C 53 % 1022,6 hPa 0,0 l/m 0,87 h 0,00 h 712 W/m 11,1 km/h (2 Bft) 98,86 %
07.05.2022 15:00 24,3 C 25,5 C 19,0 C 51 % 1022,3 hPa 0,0 l/m 0,50 h 0,00 h 465 W/m 8,8 km/h (2 Bft) 95,59 %
07.05.2022 16:00 22,8 C 23,2 C 18,3 C 53 % 1022,0 hPa 0,0 l/m 0,13 h 0,00 h 255 W/m 12,6 km/h (3 Bft) 98,80 %
07.05.2022 17:00 21,8 C 21,3 C 17,2 C 58 % 1021,9 hPa 0,0 l/m 0,00 h 0,00 h 114 W/m 9,2 km/h (2 Bft) 98,93 %
07.05.2022 18:00 19,9 C 18,9 C 15,2 C 67 % 1022,5 hPa 0,0 l/m 0,00 h 0,33 h 25 W/m 14,1 km/h (3 Bft) 95,52 %
07.05.2022 19:00 17,3 C 15,6 C 11,5 C 84 % 1023,1 hPa 1,2 l/m 0,00 h 0,90 h 17 W/m 4,8 km/h (1 Bft) 98,29 %
07.05.2022 20:00 16,5 C 15,6 C 11,0 C 89 % 1023,4 hPa 0,0 l/m 0,00 h 0,07 h 13 W/m 1,5 km/h (1 Bft) 98,43 %
07.05.2022 21:00 16,0 C 14,9 C 10,5 C 89 % 1023,8 hPa 0,0 l/m 0,00 h 0,00 h 6 W/m 2,6 km/h (1 Bft) 95,23 %
07.05.2022 22:00 15,1 C 14,2 C 10,6 C 88 % 1024,2 hPa 0,0 l/m 0,00 h 0,00 h 0 W/m 8,0 km/h (2 Bft) 97,62 %
07.05.2022 23:00 14,4 C 13,5 C 10,0 C 87 % 1024,3 hPa 0,0 l/m 0,00 h 0,00 h 0 W/m 2,8 km/h (1 Bft) 97,22 %
08.05.2022 00:00 14,1 C 13,0 C 9,5 C 89 % 1024,7 hPa 0,0 l/m 0,00 h 0,00 h 0 W/m 1,8 km/h (1 Bft) 98,35 %
08.05.2022 01:00 14,1 C 13,2 C 9,9 C 92 % 1025,2 hPa 0,0 l/m 0,00 h 0,00 h 0 W/m 7,5 km/h (2 Bft) 95,68 %
08.05.2022 02:00 13,5 C 12,7 C 9,4 C 88 % 1025,2 hPa 0,0 l/m 0,00 h 0,00 h 0 W/m 9,4 km/h (2 Bft) 98,31 %
08.05.2022 03:00 12,8 C 12,1 C 8,9 C 85 % 1025,5 hPa 0,0 l/m 0,00 h 0,00 h 0 W/m 9,1 km/h (2 Bft) 99,23 %
08.05.2022 04:00 12,7 C 12,0 C 8,6 C 84 % 1025,7 hPa 0,0 l/m 0,00 h 0,00 h 0 W/m 10,1 km/h (2 Bft) 94,87 %
08.05.2022 05:00 12,2 C 11,6 C 8,2 C 86 % 1025,9 hPa 0,0 l/m 0,00 h 0,00 h 0 W/m 9,3 km/h (2 Bft) 99,14 %
08.05.2022 06:00 11,6 C 11,0 C 7,7 C 86 % 1026,1 hPa 0,0 l/m 0,00 h 0,00 h 13 W/m 10,4 km/h (2 Bft) 97,22 %
08.05.2022 07:00 11,0 C 10,7 C 7,2 C 83 % 1026,7 hPa 0,0 l/m 0,00 h 0,00 h 46 W/m 13,0 km/h (3 Bft) 96,87 %
08.05.2022 08:00 11,4 C 11,8 C 8,0 C 81 % 1027,1 hPa 0,0 l/m 0,03 h 0,00 h 148 W/m 13,2 km/h (3 Bft) 98,73 %
08.05.2022 09:00 12,5 C 13,6 C 9,3 C 76 % 1027,5 hPa 0,0 l/m 0,40 h 0,00 h 274 W/m 14,2 km/h (3 Bft) 97,36 %
08.05.2022 10:00 14,2 C 16,7 C 11,4 C 71 % 1027,9 hPa 0,0 l/m 1,00 h 0,00 h 499 W/m 17,1 km/h (3 Bft) 97,01 %
08.05.2022 11:00 14,9 C 16,4 C 11,8 C 68 % 1028,0 hPa 0,0 l/m 0,53 h 0,00 h 402 W/m 13,7 km/h (3 Bft) 99,07 %
08.05.2022 12:00 17,3 C 21,1 C 18,6 C 60 % 1027,8 hPa 0,0 l/m 1,00 h 0,00 h 866 W/m 13,3 km/h (3 Bft) 98,37 %
08.05.2022 13:00 19,1 C 22,5 C 17,1 C 53 % 1027,5 hPa 0,0 l/m 1,00 h 0,00 h 889 W/m 15,3 km/h (3 Bft) 96,18 %
08.05.2022 14:00 20,2 C 24,4 C 15,7 C 51 % 1027,0 hPa 0,0 l/m 1,00 h 0,00 h 872 W/m 12,7 km/h (3 Bft) 97,55 %
08.05.2022 15:00 20,8 C 25,1 C 16,0 C 50 % 1026,6 hPa 0,0 l/m 1,00 h 0,00 h 799 W/m 14,2 km/h (3 Bft) 97,67 %
08.05.2022 16:00 21,2 C 26,7 C 16,8 C 51 % 1026,1 hPa 0,0 l/m 1,00 h 0,00 h 682 W/m 15,2 km/h (3 Bft) 98,03 %
08.05.2022 17:00 21,4 C 26,9 C 17,6 C 51 % 1025,8 hPa 0,0 l/m 1,00 h 0,00 h 533 W/m 13,5 km/h (3 Bft) 97,58 %
08.05.2022 18:00 21,0 C 26,1 C 16,9 C 51 % 1025,6 hPa 0,0 l/m 1,00 h 0,00 h 362 W/m 13,6 km/h (3 Bft) 97,08 %
08.05.2022 19:00 18,7 C 18,4 C 14,0 C 55 % 1025,5 hPa 0,0 l/m 0,33 h 0,00 h 102 W/m 12,5 km/h (3 Bft) 99,22 %
08.05.2022 20:00 17,4 C 16,6 C 12,8 C 57 % 1025,8 hPa 0,0 l/m 0,00 h 0,00 h 22 W/m 8,5 km/h (2 Bft) 95,73 %
08.05.2022 21:00 16,2 C 14,7 C 11,2 C 62 % 1026,2 hPa 0,0 l/m 0,00 h 0,00 h 6 W/m 2,7 km/h (1 Bft) 98,36 %
08.05.2022 22:00 14,8 C 13,4 C 9,9 C 67 % 1026,8 hPa 0,0 l/m 0,00 h 0,00 h 0 W/m 0,9 km/h (0 Bft) 97,58 %
08.05.2022 23:00 13,6 C 11,8 C 8,5 C 75 % 1027,0 hPa 0,0 l/m 0,00 h 0,00 h 0 W/m 0,0 km/h (0 Bft) 97,94 %
Min-Datum _ 04.05.22 02.05.22 04.05.22 03.05.22 02.05.22 - - - - 02.05.22 06.05.22
_ Min-Zeit 06:14 04:02 05:44 13:58 17:54 - - - - 00:00 00:02
Minimum _ 7,3 C 6,7 C 3,3 C 45 % 1017,0 hPa - - - - 0,0 km/h (0 Bft) 9,09 %
Max-Datum _ 07.05.22 02.05.22 06.05.22 06.05.22 08.05.22 07.05.22 02.05.22 07.05.22 05.05.22 03.05.22 02.05.22
_ Max-Zeit 15:22 16:36 12:44 07:20 11:14 19:04 12:08 18:26 13:22 15:02 00:00
Maximum _ 24,9 C 28,9 C 26,1 C 94 % 1028,1 hPa 1,2 l/m 0,07 h 0,03 h 1051 W/m 35,4 km/h
N-NW (5 Bft)
100,00 %
Durchschnitt _ 15,0 C 15,8 C 11,2 C 70 % 1021,7 hPa #1,2 l/m #62:16 h #1:18 h 404 W/m 7,5 km/h (2 Bft) 97,47 %
© 2022 W. Hausmann